sensor_id;sensor_type;location;lat;lon;timestamp;pressure;altitude;pressure_sealevel;temperature;humidity
5522;BME280;2783;48.730;8.006;2023-12-28T01:49:57;100275.63;;;8.58;60.50
5522;BME280;2783;48.730;8.006;2023-12-28T01:52:23;100283.31;;;8.70;61.03
5522;BME280;2783;48.730;8.006;2023-12-28T01:54:49;100288.44;;;8.79;59.17
5522;BME280;2783;48.730;8.006;2023-12-28T01:57:15;100275.75;;;8.93;58.53
5522;BME280;2783;48.730;8.006;2023-12-28T01:59:42;100290.22;;;9.18;57.61
5522;BME280;2783;48.730;8.006;2023-12-28T02:02:08;100243.56;;;9.08;57.91
5522;BME280;2783;48.730;8.006;2023-12-28T02:04:34;100232.59;;;9.23;56.20
5522;BME280;2783;48.730;8.006;2023-12-28T02:07:00;100293.97;;;9.83;55.16
5522;BME280;2783;48.730;8.006;2023-12-28T02:09:26;100298.94;;;9.96;56.41
5522;BME280;2783;48.730;8.006;2023-12-28T02:11:52;100289.81;;;10.08;54.88
5522;BME280;2783;48.730;8.006;2023-12-28T02:14:18;100272.53;;;10.24;53.52
5522;BME280;2783;48.730;8.006;2023-12-28T02:16:46;100249.25;;;10.32;53.24
5522;BME280;2783;48.730;8.006;2023-12-28T02:22:02;100257.50;;;10.53;52.03
5522;BME280;2783;48.730;8.006;2023-12-28T02:24:28;100263.88;;;10.79;51.67
5522;BME280;2783;48.730;8.006;2023-12-28T02:26:53;100274.75;;;11.00;50.17
5522;BME280;2783;48.730;8.006;2023-12-28T02:29:19;100249.88;;;11.01;49.50
5522;BME280;2783;48.730;8.006;2023-12-28T02:31:54;100238.16;;;11.07;50.30
5522;BME280;2783;48.730;8.006;2023-12-28T02:34:28;100277.72;;;11.46;49.67
5522;BME280;2783;48.730;8.006;2023-12-28T02:36:56;100229.19;;;11.37;49.33
5522;BME280;2783;48.730;8.006;2023-12-28T02:39:24;100241.97;;;11.53;49.00
5522;BME280;2783;48.730;8.006;2023-12-28T02:41:50;100262.66;;;11.73;48.58
5522;BME280;2783;48.730;8.006;2023-12-28T02:44:15;100244.63;;;11.81;47.80
5522;BME280;2783;48.730;8.006;2023-12-28T02:46:41;100224.31;;;11.77;46.90
5522;BME280;2783;48.730;8.006;2023-12-28T02:49:06;100270.44;;;12.05;47.34
5522;BME280;2783;48.730;8.006;2023-12-28T02:51:32;100249.34;;;11.99;46.74
5522;BME280;2783;48.730;8.006;2023-12-28T02:53:57;100258.34;;;11.95;47.93
5522;BME280;2783;48.730;8.006;2023-12-28T02:56:23;100252.06;;;11.98;46.77
5522;BME280;2783;48.730;8.006;2023-12-28T02:58:48;100249.41;;;11.96;47.33
5522;BME280;2783;48.730;8.006;2023-12-28T03:01:13;100222.53;;;11.77;47.89
5522;BME280;2783;48.730;8.006;2023-12-28T03:03:39;100270.53;;;12.02;48.20
5522;BME280;2783;48.730;8.006;2023-12-28T03:06:04;100276.03;;;11.98;48.80
5522;BME280;2783;48.730;8.006;2023-12-28T03:08:30;100243.09;;;11.74;48.16
5522;BME280;2783;48.730;8.006;2023-12-28T03:10:55;100254.63;;;11.74;48.73
5522;BME280;2783;48.730;8.006;2023-12-28T03:13:21;100231.59;;;11.72;47.77
5522;BME280;2783;48.730;8.006;2023-12-28T03:15:46;100253.06;;;11.93;47.61
5522;BME280;2783;48.730;8.006;2023-12-28T03:18:12;100232.69;;;11.93;48.38
5522;BME280;2783;48.730;8.006;2023-12-28T03:20:37;100269.50;;;12.06;48.52
5522;BME280;2783;48.730;8.006;2023-12-28T03:23:03;100242.69;;;11.86;47.85
5522;BME280;2783;48.730;8.006;2023-12-28T03:25:28;100261.50;;;12.06;47.69
5522;BME280;2783;48.730;8.006;2023-12-28T03:27:54;100183.53;;;11.75;47.41
5522;BME280;2783;48.730;8.006;2023-12-28T03:30:20;100261.63;;;12.28;46.38
5522;BME280;2783;48.730;8.006;2023-12-28T03:32:45;100189.84;;;11.97;47.56
5522;BME280;2783;48.730;8.006;2023-12-28T03:35:11;100270.88;;;12.42;48.59
5522;BME280;2783;48.730;8.006;2023-12-28T03:37:36;100205.16;;;11.92;48.31
5522;BME280;2783;48.730;8.006;2023-12-28T03:40:02;100200.34;;;11.77;48.97
5522;BME280;2783;48.730;8.006;2023-12-28T03:42:27;100238.44;;;12.05;48.84
5522;BME280;2783;48.730;8.006;2023-12-28T03:44:53;100258.53;;;12.15;49.85
5522;BME280;2783;48.730;8.006;2023-12-28T03:47:18;100260.31;;;12.15;49.29
5522;BME280;2783;48.730;8.006;2023-12-28T03:49:44;100242.75;;;12.09;50.38
5522;BME280;2783;48.730;8.006;2023-12-28T03:52:09;100249.00;;;12.08;50.10
5522;BME280;2783;48.730;8.006;2023-12-28T03:54:35;100255.38;;;12.04;49.56
5522;BME280;2783;48.730;8.006;2023-12-28T03:57:00;100226.34;;;11.95;49.82
5522;BME280;2783;48.730;8.006;2023-12-28T03:59:26;100228.91;;;11.98;50.25
5522;BME280;2783;48.730;8.006;2023-12-28T04:01:51;100241.72;;;12.13;50.03
5522;BME280;2783;48.730;8.006;2023-12-28T04:04:17;100237.44;;;12.08;50.63
5522;BME280;2783;48.730;8.006;2023-12-28T04:06:42;100238.44;;;12.05;50.30
5522;BME280;2783;48.730;8.006;2023-12-28T04:09:11;100186.91;;;11.80;50.96
5522;BME280;2783;48.730;8.006;2023-12-28T04:11:37;100240.28;;;12.03;51.25
5522;BME280;2783;48.730;8.006;2023-12-28T04:14:03;100255.97;;;12.12;50.78
5522;BME280;2783;48.730;8.006;2023-12-28T04:16:28;100264.75;;;12.14;51.19
5522;BME280;2783;48.730;8.006;2023-12-28T04:18:54;100272.56;;;12.20;50.75
5522;BME280;2783;48.730;8.006;2023-12-28T04:21:19;100198.50;;;11.79;50.88
5522;BME280;2783;48.730;8.006;2023-12-28T04:23:45;100274.19;;;12.24;52.02
5522;BME280;2783;48.730;8.006;2023-12-28T04:26:10;100216.03;;;11.86;52.53
5522;BME280;2783;48.730;8.006;2023-12-28T04:28:36;100270.78;;;12.21;52.99
5522;BME280;2783;48.730;8.006;2023-12-28T04:31:05;100258.53;;;12.15;53.70
5522;BME280;2783;48.730;8.006;2023-12-28T04:33:31;100281.22;;;12.27;53.63
5522;BME280;2783;48.730;8.006;2023-12-28T04:35:57;100259.28;;;12.19;52.60
5522;BME280;2783;48.730;8.006;2023-12-28T04:38:22;100250.53;;;12.15;52.32
5522;BME280;2783;48.730;8.006;2023-12-28T04:40:48;100226.06;;;12.04;52.98
5522;BME280;2783;48.730;8.006;2023-12-28T04:43:13;100233.81;;;12.10;51.81
5522;BME280;2783;48.730;8.006;2023-12-28T04:45:39;100229.44;;;12.09;52.01
5522;BME280;2783;48.730;8.006;2023-12-28T04:48:04;100227.44;;;12.14;51.56
5522;BME280;2783;48.730;8.006;2023-12-28T04:50:30;100273.47;;;12.44;51.41
5522;BME280;2783;48.730;8.006;2023-12-28T04:52:55;100270.66;;;12.48;52.18
5522;BME280;2783;48.730;8.006;2023-12-28T04:55:21;100261.19;;;12.40;51.39
5522;BME280;2783;48.730;8.006;2023-12-28T04:57:46;100283.06;;;12.49;51.46
5522;BME280;2783;48.730;8.006;2023-12-28T05:00:12;100276.13;;;12.45;51.22
5522;BME280;2783;48.730;8.006;2023-12-28T05:02:37;100302.19;;;12.62;51.18
5522;BME280;2783;48.730;8.006;2023-12-28T05:05:03;100304.81;;;12.63;51.51
5522;BME280;2783;48.730;8.006;2023-12-28T05:07:29;100269.38;;;12.35;51.36
5522;BME280;2783;48.730;8.006;2023-12-28T05:09:54;100258.66;;;12.37;51.83
5522;BME280;2783;48.730;8.006;2023-12-28T05:12:20;100282.34;;;12.44;51.90
5522;BME280;2783;48.730;8.006;2023-12-28T05:14:45;100285.03;;;12.44;52.20
5522;BME280;2783;48.730;8.006;2023-12-28T05:17:10;100274.53;;;12.40;52.22
5522;BME280;2783;48.730;8.006;2023-12-28T05:19:36;100281.47;;;12.45;52.09
5522;BME280;2783;48.730;8.006;2023-12-28T05:22:01;100278.56;;;12.51;52.02
5522;BME280;2783;48.730;8.006;2023-12-28T05:24:32;100297.00;;;12.57;53.13
5522;BME280;2783;48.730;8.006;2023-12-28T05:26:58;100285.03;;;12.44;52.51
5522;BME280;2783;48.730;8.006;2023-12-28T05:29:23;100271.69;;;12.44;52.69
5522;BME280;2783;48.730;8.006;2023-12-28T05:31:49;100279.50;;;12.50;52.63
5522;BME280;2783;48.730;8.006;2023-12-28T05:34:14;100283.72;;;12.56;52.96
5522;BME280;2783;48.730;8.006;2023-12-28T06:24:49;100236.97;;;11.70;54.88
5522;BME280;2783;48.730;8.006;2023-12-28T06:27:14;100320.75;;;12.14;55.15
5522;BME280;2783;48.730;8.006;2023-12-28T06:29:40;100289.50;;;11.93;54.50
5522;BME280;2783;48.730;8.006;2023-12-28T06:32:05;100314.03;;;12.04;54.36
5522;BME280;2783;48.730;8.006;2023-12-28T06:34:31;100321.66;;;12.15;53.22
5522;BME280;2783;48.730;8.006;2023-12-28T06:36:56;100330.97;;;12.28;54.89
5522;BME280;2783;48.730;8.006;2023-12-28T06:39:22;100272.59;;;11.94;53.91
5522;BME280;2783;48.730;8.006;2023-12-28T06:41:48;100326.78;;;12.21;54.09
5522;BME280;2783;48.730;8.006;2023-12-28T06:44:16;100344.34;;;12.26;54.35
5522;BME280;2783;48.730;8.006;2023-12-28T06:46:41;100332.91;;;12.23;54.19
5522;BME280;2783;48.730;8.006;2023-12-28T06:49:07;100316.59;;;12.07;54.33
5522;BME280;2783;48.730;8.006;2023-12-28T06:51:32;100306.28;;;11.97;54.11
5522;BME280;2783;48.730;8.006;2023-12-28T06:53:58;100310.69;;;11.98;54.66
5522;BME280;2783;48.730;8.006;2023-12-28T06:56:24;100313.97;;;12.06;54.40
5522;BME280;2783;48.730;8.006;2023-12-28T06:58:50;100335.75;;;12.18;54.40
5522;BME280;2783;48.730;8.006;2023-12-28T07:01:15;100340.19;;;12.18;54.36
5522;BME280;2783;48.730;8.006;2023-12-28T07:03:41;100290.66;;;11.86;53.91
5522;BME280;2783;48.730;8.006;2023-12-28T07:06:06;100325.41;;;12.09;54.11
5522;BME280;2783;48.730;8.006;2023-12-28T07:08:32;100339.44;;;12.14;53.87
5522;BME280;2783;48.730;8.006;2023-12-28T07:10:57;100335.63;;;12.21;53.67
5522;BME280;2783;48.730;8.006;2023-12-28T07:13:23;100303.38;;;12.04;53.87
5522;BME280;2783;48.730;8.006;2023-12-28T07:15:48;100333.25;;;12.14;53.94
5522;BME280;2783;48.730;8.006;2023-12-28T07:18:13;100349.81;;;12.23;54.13
5522;BME280;2783;48.730;8.006;2023-12-28T07:20:39;100350.69;;;12.24;54.27
5522;BME280;2783;48.730;8.006;2023-12-28T07:23:05;100337.59;;;12.16;54.39
5522;BME280;2783;48.730;8.006;2023-12-28T07:25:30;100332.16;;;12.19;54.55
5522;BME280;2783;48.730;8.006;2023-12-28T07:27:56;100370.81;;;12.32;54.55
5522;BME280;2783;48.730;8.006;2023-12-28T07:30:21;100356.03;;;12.24;55.01
5522;BME280;2783;48.730;8.006;2023-12-28T07:32:47;100334.16;;;12.13;55.63
5522;BME280;2783;48.730;8.006;2023-12-28T07:35:12;100342.31;;;12.08;55.71
5522;BME280;2783;48.730;8.006;2023-12-28T07:37:38;100364.16;;;12.19;57.27
5522;BME280;2783;48.730;8.006;2023-12-28T07:40:04;100348.69;;;12.04;58.05
5522;BME280;2783;48.730;8.006;2023-12-28T07:42:29;100362.75;;;12.09;59.24
5522;BME280;2783;48.730;8.006;2023-12-28T07:44:55;100356.72;;;12.03;59.66
5522;BME280;2783;48.730;8.006;2023-12-28T07:47:20;100370.03;;;12.04;58.79
5522;BME280;2783;48.730;8.006;2023-12-28T07:49:46;100370.81;;;12.06;58.78
5522;BME280;2783;48.730;8.006;2023-12-28T07:52:12;100372.03;;;11.96;59.28
5522;BME280;2783;48.730;8.006;2023-12-28T07:54:37;100347.31;;;11.91;59.25
5522;BME280;2783;48.730;8.006;2023-12-28T07:57:03;100368.16;;;12.06;57.95
5522;BME280;2783;48.730;8.006;2023-12-28T07:59:28;100361.38;;;11.96;58.71
5522;BME280;2783;48.730;8.006;2023-12-28T08:01:54;100370.81;;;12.06;59.04
5522;BME280;2783;48.730;8.006;2023-12-28T08:04:20;100371.03;;;12.00;61.19
5522;BME280;2783;48.730;8.006;2023-12-28T08:06:46;100383.47;;;12.00;62.74
5522;BME280;2783;48.730;8.006;2023-12-28T08:09:12;100328.47;;;11.71;62.30
5522;BME280;2783;48.730;8.006;2023-12-28T08:11:37;100332.13;;;11.67;64.02
5522;BME280;2783;48.730;8.006;2023-12-28T08:14:03;100359.41;;;11.75;64.30
5522;BME280;2783;48.730;8.006;2023-12-28T08:16:28;100367.41;;;11.75;63.86
5522;BME280;2783;48.730;8.006;2023-12-28T08:18:54;100372.69;;;11.76;63.28
5522;BME280;2783;48.730;8.006;2023-12-28T08:21:20;100334.41;;;11.50;64.29
5522;BME280;2783;48.730;8.006;2023-12-28T08:23:45;100377.88;;;11.81;64.40
5522;BME280;2783;48.730;8.006;2023-12-28T08:26:11;100351.78;;;11.63;64.32
5522;BME280;2783;48.730;8.006;2023-12-28T08:28:36;100382.66;;;11.70;63.86
5522;BME280;2783;48.730;8.006;2023-12-28T08:31:02;100384.38;;;11.72;63.87
5522;BME280;2783;48.730;8.006;2023-12-28T08:33:27;100397.66;;;11.74;63.68
5522;BME280;2783;48.730;8.006;2023-12-28T08:35:53;100366.91;;;11.62;62.71
5522;BME280;2783;48.730;8.006;2023-12-28T08:38:19;100402.09;;;11.73;63.81
5522;BME280;2783;48.730;8.006;2023-12-28T08:40:45;100374.81;;;11.65;64.06
5522;BME280;2783;48.730;8.006;2023-12-28T08:43:10;100384.44;;;11.71;64.83
5522;BME280;2783;48.730;8.006;2023-12-28T08:45:36;100388.91;;;11.69;65.07
5522;BME280;2783;48.730;8.006;2023-12-28T08:48:02;100395.97;;;11.70;65.29
5522;BME280;2783;48.730;8.006;2023-12-28T08:50:28;100408.31;;;11.74;64.65
5522;BME280;2783;48.730;8.006;2023-12-28T08:52:53;100411.59;;;11.82;66.16
5522;BME280;2783;48.730;8.006;2023-12-28T08:55:18;100403.72;;;11.79;65.82
5522;BME280;2783;48.730;8.006;2023-12-28T08:57:44;100416.06;;;11.81;65.57
5522;BME280;2783;48.730;8.006;2023-12-28T09:00:10;100403.41;;;11.88;65.86
5522;BME280;2783;48.730;8.006;2023-12-28T09:02:36;100391.94;;;11.86;65.49
5522;BME280;2783;48.730;8.006;2023-12-28T09:05:02;100379.63;;;11.82;65.98
5522;BME280;2783;48.730;8.006;2023-12-28T09:07:28;100386.41;;;11.92;65.49
5522;BME280;2783;48.730;8.006;2023-12-28T09:09:53;100396.06;;;11.94;65.10
5522;BME280;2783;48.730;8.006;2023-12-28T09:12:19;100409.19;;;12.02;64.46
5522;BME280;2783;48.730;8.006;2023-12-28T09:14:44;100398.69;;;11.96;63.32
5522;BME280;2783;48.730;8.006;2023-12-28T09:17:11;100409.84;;;12.09;63.56
5522;BME280;2783;48.730;8.006;2023-12-28T09:19:36;100338.19;;;11.72;64.99
5522;BME280;2783;48.730;8.006;2023-12-28T09:22:02;100410.53;;;12.15;65.66
5522;BME280;2783;48.730;8.006;2023-12-28T09:24:27;100396.06;;;11.94;66.40
5522;BME280;2783;48.730;8.006;2023-12-28T09:26:52;100424.75;;;12.14;65.08
5522;BME280;2783;48.730;8.006;2023-12-28T09:29:18;100405.19;;;12.15;63.92
5522;BME280;2783;48.730;8.006;2023-12-28T09:31:46;100430.44;;;12.31;63.50
5522;BME280;2783;48.730;8.006;2023-12-28T09:34:11;100419.81;;;12.30;63.23
5522;BME280;2783;48.730;8.006;2023-12-28T09:36:37;100411.88;;;12.28;63.55
5522;BME280;2783;48.730;8.006;2023-12-28T09:39:02;100406.53;;;12.28;62.91
5522;BME280;2783;48.730;8.006;2023-12-28T09:41:34;100425.59;;;12.42;63.41
5522;BME280;2783;48.730;8.006;2023-12-28T09:44:11;100404.69;;;12.30;61.91
5522;BME280;2783;48.730;8.006;2023-12-28T09:46:37;100430.94;;;12.42;61.59
5522;BME280;2783;48.730;8.006;2023-12-28T09:49:04;100423.97;;;12.38;61.02
5522;BME280;2783;48.730;8.006;2023-12-28T09:51:30;100402.75;;;12.35;61.09
5522;BME280;2783;48.730;8.006;2023-12-28T09:53:56;100352.06;;;12.09;60.98
5522;BME280;2783;48.730;8.006;2023-12-28T09:56:22;100399.03;;;12.39;61.83
5522;BME280;2783;48.730;8.006;2023-12-28T09:58:49;100420.91;;;12.50;64.24
5522;BME280;2783;48.730;8.006;2023-12-28T10:01:17;100408.78;;;12.40;66.23
5522;BME280;2783;48.730;8.006;2023-12-28T10:03:43;100416.13;;;12.34;69.14
5522;BME280;2783;48.730;8.006;2023-12-28T10:06:08;100400.59;;;12.20;71.24
5522;BME280;2783;48.730;8.006;2023-12-28T10:08:34;100385.34;;;11.98;72.53
5522;BME280;2783;48.730;8.006;2023-12-28T10:11:01;100436.53;;;12.09;73.19
5522;BME280;2783;48.730;8.006;2023-12-28T10:13:28;100423.25;;;12.07;74.94
5522;BME280;2783;48.730;8.006;2023-12-28T10:15:57;100427.78;;;12.04;77.28
5522;BME280;2783;48.730;8.006;2023-12-28T10:18:24;100384.31;;;11.74;78.15
5522;BME280;2783;48.730;8.006;2023-12-28T10:20:53;100399.28;;;11.78;79.63
5522;BME280;2783;48.730;8.006;2023-12-28T10:23:19;100345.31;;;11.42;80.38
5522;BME280;2783;48.730;8.006;2023-12-28T10:25:46;100392.47;;;11.69;80.82
5522;BME280;2783;48.730;8.006;2023-12-28T10:28:12;100391.63;;;11.67;80.03
5522;BME280;2783;48.730;8.006;2023-12-28T10:30:38;100399.38;;;11.75;80.71
5522;BME280;2783;48.730;8.006;2023-12-28T10:33:07;100404.53;;;11.81;81.31
5522;BME280;2783;48.730;8.006;2023-12-28T10:35:34;100388.91;;;11.69;82.68
5522;BME280;2783;48.730;8.006;2023-12-28T10:38:00;100383.53;;;11.70;83.08
5522;BME280;2783;48.730;8.006;2023-12-28T10:40:29;100395.94;;;11.71;82.63
5522;BME280;2783;48.730;8.006;2023-12-28T10:42:58;100400.47;;;11.69;83.03
5522;BME280;2783;48.730;8.006;2023-12-28T10:45:28;100364.53;;;11.52;83.26
5522;BME280;2783;48.730;8.006;2023-12-28T10:48:05;100392.69;;;11.60;85.52
5522;BME280;2783;48.730;8.006;2023-12-28T10:50:41;100382.31;;;11.53;85.60
5522;BME280;2783;48.730;8.006;2023-12-28T11:01:09;100372.84;;;11.43;83.88
5522;BME280;2783;48.730;8.006;2023-12-28T11:03:37;100358.75;;;11.39;83.10
5522;BME280;2783;48.730;8.006;2023-12-28T11:06:06;100355.03;;;11.45;83.01
5522;BME280;2783;48.730;8.006;2023-12-28T11:08:34;100378.38;;;11.66;82.82
5522;BME280;2783;48.730;8.006;2023-12-28T11:11:01;100371.28;;;11.65;82.91
5522;BME280;2783;48.730;8.006;2023-12-28T11:13:30;100376.66;;;11.62;83.81
5522;BME280;2783;48.730;8.006;2023-12-28T11:15:58;100379.25;;;11.65;84.63
5522;BME280;2783;48.730;8.006;2023-12-28T11:18:25;100390.66;;;11.70;84.46
5522;BME280;2783;48.730;8.006;2023-12-28T11:20:51;100345.28;;;11.44;86.11
5522;BME280;2783;48.730;8.006;2023-12-28T11:23:17;100379.16;;;11.68;86.51
5522;BME280;2783;48.730;8.006;2023-12-28T11:25:42;100357.50;;;11.51;87.30
5522;BME280;2783;48.730;8.006;2023-12-28T11:28:12;100369.59;;;11.61;87.32
5522;BME280;2783;48.730;8.006;2023-12-28T11:30:38;100370.06;;;11.46;86.98
5522;BME280;2783;48.730;8.006;2023-12-28T11:33:07;100372.44;;;11.55;86.64
5522;BME280;2783;48.730;8.006;2023-12-28T11:35:39;100346.00;;;11.49;86.53
5522;BME280;2783;48.730;8.006;2023-12-28T11:38:08;100364.38;;;11.58;86.77
5522;BME280;2783;48.730;8.006;2023-12-28T11:41:03;100342.75;;;11.39;86.30
5522;BME280;2783;48.730;8.006;2023-12-28T11:43:29;100352.91;;;11.56;86.93
5522;BME280;2783;48.730;8.006;2023-12-28T11:46:00;100375.66;;;11.67;86.70
5522;BME280;2783;48.730;8.006;2023-12-28T11:48:26;100348.50;;;11.53;86.93
5522;BME280;2783;48.730;8.006;2023-12-28T11:50:59;100359.13;;;11.55;87.72
5522;BME280;2783;48.730;8.006;2023-12-28T11:53:25;100342.47;;;11.48;87.97
5522;BME280;2783;48.730;8.006;2023-12-28T11:55:52;100373.03;;;11.66;88.21
5522;BME280;2783;48.730;8.006;2023-12-28T11:58:24;100352.00;;;11.55;88.20
5522;BME280;2783;48.730;8.006;2023-12-28T12:00:50;100350.41;;;11.50;88.99
5522;BME280;2783;48.730;8.006;2023-12-28T12:03:15;100348.56;;;11.52;89.69
5522;BME280;2783;48.730;8.006;2023-12-28T12:05:41;100346.06;;;11.47;90.42
5522;BME280;2783;48.730;8.006;2023-12-28T12:08:06;100371.59;;;11.54;91.47
5522;BME280;2783;48.730;8.006;2023-12-28T12:10:36;100376.66;;;11.62;91.79
5522;BME280;2783;48.730;8.006;2023-12-28T12:13:01;100314.06;;;11.20;91.08
5522;BME280;2783;48.730;8.006;2023-12-28T12:15:28;100307.97;;;11.16;91.75
5522;BME280;2783;48.730;8.006;2023-12-28T12:17:54;100358.53;;;11.45;92.73
5522;BME280;2783;48.730;8.006;2023-12-28T12:20:20;100366.38;;;11.50;93.45
5522;BME280;2783;48.730;8.006;2023-12-28T12:22:46;100293.13;;;11.08;95.00
5522;BME280;2783;48.730;8.006;2023-12-28T12:25:11;100343.81;;;11.34;95.32
5522;BME280;2783;48.730;8.006;2023-12-28T12:27:37;100359.69;;;11.37;97.00
5522;BME280;2783;48.730;8.006;2023-12-28T12:30:04;100371.28;;;11.36;97.64
5522;BME280;2783;48.730;8.006;2023-12-28T12:32:30;100337.25;;;11.16;98.15
5522;BME280;2783;48.730;8.006;2023-12-28T12:34:57;100346.88;;;11.20;99.32
5522;BME280;2783;48.730;8.006;2023-12-28T12:37:23;100303.59;;;10.85;100.00
5522;BME280;2783;48.730;8.006;2023-12-28T12:39:50;100272.19;;;10.67;100.00
5522;BME280;2783;48.730;8.006;2023-12-28T12:42:16;100297.44;;;10.83;100.00
5522;BME280;2783;48.730;8.006;2023-12-28T12:44:44;100255.69;;;10.55;100.00
5522;BME280;2783;48.730;8.006;2023-12-28T12:47:10;100284.22;;;10.80;100.00
5522;BME280;2783;48.730;8.006;2023-12-28T12:49:35;100289.56;;;10.80;100.00
5522;BME280;2783;48.730;8.006;2023-12-28T12:52:02;100341.97;;;11.07;100.00
5522;BME280;2783;48.730;8.006;2023-12-28T12:54:27;100262.41;;;10.69;100.00
5522;BME280;2783;48.730;8.006;2023-12-28T12:56:54;100244.94;;;10.58;100.00
5522;BME280;2783;48.730;8.006;2023-12-28T12:59:19;100334.78;;;11.10;100.00
5522;BME280;2783;48.730;8.006;2023-12-28T13:01:45;100346.88;;;11.20;100.00
5522;BME280;2783;48.730;8.006;2023-12-28T13:04:14;100332.97;;;11.11;100.00
5522;BME280;2783;48.730;8.006;2023-12-28T13:06:41;100299.09;;;10.87;100.00
5522;BME280;2783;48.730;8.006;2023-12-28T13:09:07;100271.91;;;10.77;100.00
5522;BME280;2783;48.730;8.006;2023-12-28T13:11:34;100319.72;;;11.09;100.00
5522;BME280;2783;48.730;8.006;2023-12-28T13:13:59;100327.69;;;11.09;100.00
5522;BME280;2783;48.730;8.006;2023-12-28T13:16:25;100332.66;;;11.21;100.00
5522;BME280;2783;48.730;8.006;2023-12-28T13:18:50;100315.13;;;11.14;100.00
5522;BME280;2783;48.730;8.006;2023-12-28T13:21:16;100312.31;;;11.19;100.00
5522;BME280;2783;48.730;8.006;2023-12-28T13:23:41;100339.63;;;11.25;100.00
5522;BME280;2783;48.730;8.006;2023-12-28T13:26:07;100346.47;;;11.34;100.00
5522;BME280;2783;48.730;8.006;2023-12-28T13:28:32;100333.09;;;11.35;100.00
5522;BME280;2783;48.730;8.006;2023-12-28T13:30:58;100297.31;;;11.16;100.00
5522;BME280;2783;48.730;8.006;2023-12-28T13:33:23;100336.38;;;11.45;100.00
5522;BME280;2783;48.730;8.006;2023-12-28T13:35:50;100353.16;;;11.47;100.00
5522;BME280;2783;48.730;8.006;2023-12-28T13:38:15;100316.31;;;11.33;100.00
5522;BME280;2783;48.730;8.006;2023-12-28T13:40:41;100298.00;;;11.23;100.00
5522;BME280;2783;48.730;8.006;2023-12-28T13:43:07;100321.25;;;11.45;100.00
5522;BME280;2783;48.730;8.006;2023-12-28T13:45:32;100269.81;;;11.16;100.00
5522;BME280;2783;48.730;8.006;2023-12-28T13:47:58;100269.88;;;11.14;100.00
5522;BME280;2783;48.730;8.006;2023-12-28T13:50:23;100328.91;;;11.56;100.00
5522;BME280;2783;48.730;8.006;2023-12-28T13:52:49;100313.63;;;11.35;100.00
5522;BME280;2783;48.730;8.006;2023-12-28T13:55:14;100322.19;;;11.44;100.00
5522;BME280;2783;48.730;8.006;2023-12-28T13:57:40;100322.06;;;11.47;100.00
5522;BME280;2783;48.730;8.006;2023-12-28T14:00:06;100326.31;;;11.54;100.00
5522;BME280;2783;48.730;8.006;2023-12-28T14:02:32;100257.38;;;11.16;100.00
5522;BME280;2783;48.730;8.006;2023-12-28T14:04:58;100300.25;;;11.36;100.00
5522;BME280;2783;48.730;8.006;2023-12-28T14:07:24;100307.03;;;11.46;100.00
5522;BME280;2783;48.730;8.006;2023-12-28T14:09:50;100299.25;;;11.39;100.00
5522;BME280;2783;48.730;8.006;2023-12-28T14:12:15;100291.56;;;11.30;100.00
5522;BME280;2783;48.730;8.006;2023-12-28T14:14:41;100226.91;;;10.97;100.00
5522;BME280;2783;48.730;8.006;2023-12-28T14:17:07;100216.63;;;10.87;100.00
5522;BME280;2783;48.730;8.006;2023-12-28T14:19:32;100271.31;;;11.24;100.00
5522;BME280;2783;48.730;8.006;2023-12-28T14:21:59;100300.91;;;11.43;100.00
5522;BME280;2783;48.730;8.006;2023-12-28T14:24:25;100272.06;;;11.29;100.00
5522;BME280;2783;48.730;8.006;2023-12-28T14:26:53;100306.09;;;11.47;100.00
5522;BME280;2783;48.730;8.006;2023-12-28T14:29:20;100290.28;;;11.43;100.00
5522;BME280;2783;48.730;8.006;2023-12-28T14:31:46;100255.19;;;11.29;100.00
5522;BME280;2783;48.730;8.006;2023-12-28T14:34:12;100239.75;;;11.12;100.00
5522;BME280;2783;48.730;8.006;2023-12-28T14:36:38;100214.22;;;11.07;100.00
5522;BME280;2783;48.730;8.006;2023-12-28T14:39:05;100248.13;;;11.28;99.74
5522;BME280;2783;48.730;8.006;2023-12-28T14:41:32;100228.16;;;11.15;99.08
5522;BME280;2783;48.730;8.006;2023-12-28T14:43:58;100262.84;;;11.39;98.86
5522;BME280;2783;48.730;8.006;2023-12-28T14:46:24;100288.13;;;11.54;98.71
5522;BME280;2783;48.730;8.006;2023-12-28T14:48:51;100214.22;;;11.07;98.38
5522;BME280;2783;48.730;8.006;2023-12-28T14:51:16;100269.63;;;11.49;98.27
5522;BME280;2783;48.730;8.006;2023-12-28T14:53:42;100275.13;;;11.43;97.13
5522;BME280;2783;48.730;8.006;2023-12-28T14:56:08;100274.97;;;11.49;97.44
5522;BME280;2783;48.730;8.006;2023-12-28T14:58:33;100266.25;;;11.44;97.79
5522;BME280;2783;48.730;8.006;2023-12-28T15:00:59;100257.38;;;11.44;98.09
5522;BME280;2783;48.730;8.006;2023-12-28T15:03:24;100277.41;;;11.55;97.36
5522;BME280;2783;48.730;8.006;2023-12-28T15:05:51;100237.38;;;11.31;97.50
5522;BME280;2783;48.730;8.006;2023-12-28T15:08:17;100239.72;;;11.41;97.16
5522;BME280;2783;48.730;8.006;2023-12-28T15:10:42;100240.38;;;11.48;97.57
5522;BME280;2783;48.730;8.006;2023-12-28T15:13:08;100238.50;;;11.51;97.74
5522;BME280;2783;48.730;8.006;2023-12-28T15:15:34;100239.66;;;11.43;97.64
5522;BME280;2783;48.730;8.006;2023-12-28T15:18:00;100243.78;;;11.53;98.54
5522;BME280;2783;48.730;8.006;2023-12-28T15:20:26;100235.00;;;11.49;98.29
5522;BME280;2783;48.730;8.006;2023-12-28T15:22:52;100213.94;;;11.42;98.37
5522;BME280;2783;48.730;8.006;2023-12-28T15:25:18;100247.22;;;11.55;98.88
5522;BME280;2783;48.730;8.006;2023-12-28T15:27:44;100252.50;;;11.58;99.05
5522;BME280;2783;48.730;8.006;2023-12-28T15:30:10;100241.91;;;11.55;98.00
5522;BME280;2783;48.730;8.006;2023-12-28T15:32:38;100240.28;;;11.51;98.37
5522;BME280;2783;48.730;8.006;2023-12-28T15:35:04;100241.72;;;11.61;97.69
5522;BME280;2783;48.730;8.006;2023-12-28T15:37:31;100249.66;;;11.62;97.77
5522;BME280;2783;48.730;8.006;2023-12-28T15:39:57;100219.06;;;11.48;97.71
5522;BME280;2783;48.730;8.006;2023-12-28T15:42:23;100228.69;;;11.52;97.61
5522;BME280;2783;48.730;8.006;2023-12-28T15:44:48;100243.50;;;11.60;97.82
5522;BME280;2783;48.730;8.006;2023-12-28T15:47:13;100248.88;;;11.59;98.25
5522;BME280;2783;48.730;8.006;2023-12-28T15:49:39;100237.47;;;11.55;98.43
5522;BME280;2783;48.730;8.006;2023-12-28T15:52:04;100219.06;;;11.48;97.98